sensor_id;sensor_type;location;lat;lon;timestamp;P1;durP1;ratioP1;P2;durP2;ratioP2
51523;SDS011;37610;51.790;21.590;2024-03-25T00:03:46;15.10;;;8.50;;
51523;SDS011;37610;51.790;21.590;2024-03-25T00:07:47;15.00;;;9.40;;
51523;SDS011;37610;51.790;21.590;2024-03-25T00:11:49;16.90;;;9.90;;
51523;SDS011;37610;51.790;21.590;2024-03-25T00:15:55;14.60;;;9.80;;
51523;SDS011;37610;51.790;21.590;2024-03-25T00:19:56;20.10;;;11.60;;
51523;SDS011;37610;51.790;21.590;2024-03-25T00:23:59;27.10;;;12.90;;
51523;SDS011;37610;51.790;21.590;2024-03-25T00:28:01;27.80;;;12.90;;
51523;SDS011;37610;51.790;21.590;2024-03-25T00:32:03;22.30;;;11.50;;
51523;SDS011;37610;51.790;21.590;2024-03-25T00:36:05;25.30;;;13.10;;
51523;SDS011;37610;51.790;21.590;2024-03-25T00:40:07;23.30;;;11.90;;
51523;SDS011;37610;51.790;21.590;2024-03-25T00:44:09;29.20;;;12.00;;
51523;SDS011;37610;51.790;21.590;2024-03-25T00:48:11;28.70;;;12.70;;
51523;SDS011;37610;51.790;21.590;2024-03-25T00:52:12;22.20;;;10.90;;
51523;SDS011;37610;51.790;21.590;2024-03-25T00:56:14;22.60;;;10.70;;
51523;SDS011;37610;51.790;21.590;2024-03-25T01:00:15;19.80;;;10.30;;
51523;SDS011;37610;51.790;21.590;2024-03-25T01:04:17;15.90;;;10.40;;
51523;SDS011;37610;51.790;21.590;2024-03-25T01:08:19;20.10;;;10.00;;
51523;SDS011;37610;51.790;21.590;2024-03-25T01:12:21;18.40;;;9.50;;
51523;SDS011;37610;51.790;21.590;2024-03-25T01:16:22;22.00;;;10.60;;
51523;SDS011;37610;51.790;21.590;2024-03-25T01:20:23;20.20;;;10.80;;
51523;SDS011;37610;51.790;21.590;2024-03-25T01:24:25;20.60;;;10.90;;
51523;SDS011;37610;51.790;21.590;2024-03-25T01:28:26;18.40;;;10.40;;
51523;SDS011;37610;51.790;21.590;2024-03-25T01:32:28;16.60;;;9.10;;
51523;SDS011;37610;51.790;21.590;2024-03-25T01:36:30;19.30;;;10.40;;
51523;SDS011;37610;51.790;21.590;2024-03-25T01:40:31;20.90;;;10.50;;
51523;SDS011;37610;51.790;21.590;2024-03-25T01:44:32;22.00;;;11.80;;
51523;SDS011;37610;51.790;21.590;2024-03-25T01:48:34;20.80;;;10.80;;
51523;SDS011;37610;51.790;21.590;2024-03-25T01:52:35;19.80;;;9.70;;
51523;SDS011;37610;51.790;21.590;2024-03-25T01:56:37;18.10;;;10.00;;
51523;SDS011;37610;51.790;21.590;2024-03-25T02:00:42;17.40;;;10.10;;
51523;SDS011;37610;51.790;21.590;2024-03-25T02:04:44;25.70;;;12.30;;
51523;SDS011;37610;51.790;21.590;2024-03-25T02:08:45;24.50;;;10.80;;
51523;SDS011;37610;51.790;21.590;2024-03-25T02:12:49;22.30;;;11.70;;
51523;SDS011;37610;51.790;21.590;2024-03-25T02:16:51;21.50;;;11.50;;
51523;SDS011;37610;51.790;21.590;2024-03-25T02:20:52;29.20;;;16.00;;
51523;SDS011;37610;51.790;21.590;2024-03-25T02:24:54;24.70;;;14.30;;
51523;SDS011;37610;51.790;21.590;2024-03-25T02:28:58;22.60;;;13.70;;
51523;SDS011;37610;51.790;21.590;2024-03-25T02:32:59;28.40;;;12.90;;
51523;SDS011;37610;51.790;21.590;2024-03-25T02:37:01;21.40;;;13.70;;
51523;SDS011;37610;51.790;21.590;2024-03-25T02:41:02;22.00;;;13.10;;
51523;SDS011;37610;51.790;21.590;2024-03-25T02:45:04;23.60;;;13.10;;
51523;SDS011;37610;51.790;21.590;2024-03-25T02:49:06;21.90;;;12.20;;
51523;SDS011;37610;51.790;21.590;2024-03-25T02:53:07;22.30;;;13.50;;
51523;SDS011;37610;51.790;21.590;2024-03-25T02:57:09;22.00;;;14.20;;
51523;SDS011;37610;51.790;21.590;2024-03-25T03:01:10;27.60;;;15.30;;
51523;SDS011;37610;51.790;21.590;2024-03-25T03:05:11;24.50;;;13.80;;
51523;SDS011;37610;51.790;21.590;2024-03-25T03:09:13;24.00;;;12.70;;
51523;SDS011;37610;51.790;21.590;2024-03-25T03:13:14;22.50;;;13.50;;
51523;SDS011;37610;51.790;21.590;2024-03-25T03:17:15;20.90;;;12.30;;
51523;SDS011;37610;51.790;21.590;2024-03-25T03:21:17;24.40;;;12.10;;
51523;SDS011;37610;51.790;21.590;2024-03-25T03:25:18;24.00;;;13.60;;
51523;SDS011;37610;51.790;21.590;2024-03-25T03:29:19;24.80;;;14.30;;
51523;SDS011;37610;51.790;21.590;2024-03-25T03:33:21;21.00;;;11.90;;
51523;SDS011;37610;51.790;21.590;2024-03-25T03:37:22;18.80;;;11.50;;
51523;SDS011;37610;51.790;21.590;2024-03-25T03:41:24;21.10;;;11.80;;
51523;SDS011;37610;51.790;21.590;2024-03-25T03:45:25;24.60;;;14.30;;
51523;SDS011;37610;51.790;21.590;2024-03-25T03:49:26;21.80;;;12.20;;
51523;SDS011;37610;51.790;21.590;2024-03-25T03:53:28;28.60;;;16.30;;
51523;SDS011;37610;51.790;21.590;2024-03-25T03:57:30;32.20;;;17.60;;
51523;SDS011;37610;51.790;21.590;2024-03-25T04:01:33;24.70;;;13.10;;
51523;SDS011;37610;51.790;21.590;2024-03-25T04:05:34;22.10;;;13.60;;
51523;SDS011;37610;51.790;21.590;2024-03-25T04:09:36;22.80;;;11.60;;
51523;SDS011;37610;51.790;21.590;2024-03-25T04:13:37;25.30;;;13.90;;
51523;SDS011;37610;51.790;21.590;2024-03-25T04:17:39;20.90;;;11.10;;
51523;SDS011;37610;51.790;21.590;2024-03-25T04:21:41;20.80;;;11.40;;
51523;SDS011;37610;51.790;21.590;2024-03-25T04:25:42;20.30;;;12.30;;
51523;SDS011;37610;51.790;21.590;2024-03-25T04:29:43;23.00;;;11.60;;
51523;SDS011;37610;51.790;21.590;2024-03-25T04:33:45;16.90;;;10.20;;
51523;SDS011;37610;51.790;21.590;2024-03-25T04:37:46;21.60;;;12.20;;
51523;SDS011;37610;51.790;21.590;2024-03-25T04:41:48;35.20;;;18.50;;
51523;SDS011;37610;51.790;21.590;2024-03-25T04:45:49;26.40;;;15.30;;
51523;SDS011;37610;51.790;21.590;2024-03-25T04:49:51;31.20;;;16.00;;
51523;SDS011;37610;51.790;21.590;2024-03-25T04:53:52;26.50;;;14.90;;
51523;SDS011;37610;51.790;21.590;2024-03-25T04:57:54;27.60;;;15.40;;
51523;SDS011;37610;51.790;21.590;2024-03-25T05:01:55;24.80;;;14.50;;
51523;SDS011;37610;51.790;21.590;2024-03-25T05:05:56;21.70;;;12.60;;
51523;SDS011;37610;51.790;21.590;2024-03-25T05:09:58;27.10;;;16.50;;
51523;SDS011;37610;51.790;21.590;2024-03-25T05:13:59;25.20;;;15.00;;
51523;SDS011;37610;51.790;21.590;2024-03-25T05:18:00;40.30;;;23.70;;
51523;SDS011;37610;51.790;21.590;2024-03-25T05:22:02;34.00;;;19.00;;
51523;SDS011;37610;51.790;21.590;2024-03-25T05:26:03;28.30;;;15.60;;
51523;SDS011;37610;51.790;21.590;2024-03-25T05:30:05;30.20;;;15.10;;
51523;SDS011;37610;51.790;21.590;2024-03-25T05:34:07;26.70;;;15.30;;
51523;SDS011;37610;51.790;21.590;2024-03-25T05:38:10;24.80;;;14.70;;
51523;SDS011;37610;51.790;21.590;2024-03-25T05:42:11;24.80;;;14.50;;
51523;SDS011;37610;51.790;21.590;2024-03-25T05:46:13;26.60;;;14.70;;
51523;SDS011;37610;51.790;21.590;2024-03-25T05:50:14;24.10;;;13.70;;
51523;SDS011;37610;51.790;21.590;2024-03-25T05:54:16;32.20;;;17.00;;
51523;SDS011;37610;51.790;21.590;2024-03-25T05:58:17;34.50;;;20.10;;
51523;SDS011;37610;51.790;21.590;2024-03-25T06:02:18;24.20;;;14.30;;
51523;SDS011;37610;51.790;21.590;2024-03-25T06:06:20;23.10;;;13.00;;
51523;SDS011;37610;51.790;21.590;2024-03-25T06:10:21;25.40;;;14.00;;
51523;SDS011;37610;51.790;21.590;2024-03-25T06:14:22;25.00;;;12.50;;
51523;SDS011;37610;51.790;21.590;2024-03-25T06:18:25;26.90;;;13.60;;
51523;SDS011;37610;51.790;21.590;2024-03-25T06:22:26;20.10;;;11.00;;
51523;SDS011;37610;51.790;21.590;2024-03-25T06:26:27;38.30;;;14.90;;
51523;SDS011;37610;51.790;21.590;2024-03-25T06:30:29;22.30;;;12.10;;
51523;SDS011;37610;51.790;21.590;2024-03-25T06:34:49;25.80;;;13.20;;
51523;SDS011;37610;51.790;21.590;2024-03-25T06:38:51;22.00;;;11.60;;
51523;SDS011;37610;51.790;21.590;2024-03-25T06:42:52;25.00;;;14.00;;
51523;SDS011;37610;51.790;21.590;2024-03-25T06:46:53;20.80;;;12.00;;
51523;SDS011;37610;51.790;21.590;2024-03-25T06:50:56;24.10;;;13.20;;
51523;SDS011;37610;51.790;21.590;2024-03-25T06:54:58;28.70;;;15.90;;
51523;SDS011;37610;51.790;21.590;2024-03-25T06:59:00;25.30;;;12.80;;
51523;SDS011;37610;51.790;21.590;2024-03-25T07:03:01;24.00;;;13.80;;
51523;SDS011;37610;51.790;21.590;2024-03-25T07:07:02;21.70;;;12.40;;
51523;SDS011;37610;51.790;21.590;2024-03-25T07:11:05;21.50;;;12.00;;
51523;SDS011;37610;51.790;21.590;2024-03-25T07:15:07;22.00;;;12.50;;
51523;SDS011;37610;51.790;21.590;2024-03-25T07:19:08;19.10;;;11.50;;
51523;SDS011;37610;51.790;21.590;2024-03-25T07:23:10;21.40;;;11.70;;
51523;SDS011;37610;51.790;21.590;2024-03-25T07:27:12;23.20;;;12.00;;
51523;SDS011;37610;51.790;21.590;2024-03-25T07:31:13;23.30;;;12.00;;
51523;SDS011;37610;51.790;21.590;2024-03-25T07:35:15;16.50;;;9.30;;
51523;SDS011;37610;51.790;21.590;2024-03-25T07:39:18;20.20;;;10.50;;
51523;SDS011;37610;51.790;21.590;2024-03-25T07:43:19;15.60;;;9.50;;
51523;SDS011;37610;51.790;21.590;2024-03-25T07:47:21;17.80;;;9.60;;
51523;SDS011;37610;51.790;21.590;2024-03-25T07:51:22;17.70;;;10.40;;
51523;SDS011;37610;51.790;21.590;2024-03-25T07:55:24;17.40;;;9.60;;
51523;SDS011;37610;51.790;21.590;2024-03-25T07:59:25;16.60;;;10.30;;
51523;SDS011;37610;51.790;21.590;2024-03-25T08:03:27;17.60;;;8.50;;
51523;SDS011;37610;51.790;21.590;2024-03-25T08:07:28;13.70;;;7.80;;
51523;SDS011;37610;51.790;21.590;2024-03-25T08:11:30;15.80;;;7.60;;
51523;SDS011;37610;51.790;21.590;2024-03-25T08:15:32;12.80;;;7.80;;
51523;SDS011;37610;51.790;21.590;2024-03-25T08:19:33;13.70;;;7.70;;
51523;SDS011;37610;51.790;21.590;2024-03-25T08:23:34;12.40;;;7.40;;
51523;SDS011;37610;51.790;21.590;2024-03-25T08:27:36;13.60;;;8.50;;
51523;SDS011;37610;51.790;21.590;2024-03-25T08:31:38;14.70;;;8.30;;
51523;SDS011;37610;51.790;21.590;2024-03-25T08:35:39;13.30;;;7.60;;
51523;SDS011;37610;51.790;21.590;2024-03-25T08:39:41;14.00;;;7.70;;
51523;SDS011;37610;51.790;21.590;2024-03-25T08:43:42;11.80;;;7.40;;
51523;SDS011;37610;51.790;21.590;2024-03-25T08:47:44;15.00;;;7.30;;
51523;SDS011;37610;51.790;21.590;2024-03-25T08:51:45;11.90;;;7.60;;
51523;SDS011;37610;51.790;21.590;2024-03-25T08:55:47;13.20;;;7.40;;
51523;SDS011;37610;51.790;21.590;2024-03-25T08:59:48;12.50;;;6.70;;
51523;SDS011;37610;51.790;21.590;2024-03-25T09:03:50;12.40;;;6.30;;
51523;SDS011;37610;51.790;21.590;2024-03-25T09:07:51;11.70;;;6.80;;
51523;SDS011;37610;51.790;21.590;2024-03-25T09:11:53;12.20;;;7.20;;
51523;SDS011;37610;51.790;21.590;2024-03-25T09:15:55;11.50;;;6.60;;
51523;SDS011;37610;51.790;21.590;2024-03-25T09:19:56;14.40;;;7.20;;
51523;SDS011;37610;51.790;21.590;2024-03-25T09:23:58;14.70;;;7.40;;
51523;SDS011;37610;51.790;21.590;2024-03-25T09:27:59;12.00;;;6.60;;
51523;SDS011;37610;51.790;21.590;2024-03-25T09:32:02;12.40;;;6.10;;
51523;SDS011;37610;51.790;21.590;2024-03-25T09:36:04;10.00;;;6.10;;
51523;SDS011;37610;51.790;21.590;2024-03-25T09:40:06;7.60;;;4.60;;
51523;SDS011;37610;51.790;21.590;2024-03-25T09:44:08;12.90;;;5.70;;
51523;SDS011;37610;51.790;21.590;2024-03-25T09:48:10;8.60;;;5.20;;
51523;SDS011;37610;51.790;21.590;2024-03-25T09:52:17;6.60;;;4.60;;
51523;SDS011;37610;51.790;21.590;2024-03-25T09:56:19;7.80;;;4.90;;
51523;SDS011;37610;51.790;21.590;2024-03-25T10:00:21;9.10;;;4.70;;
51523;SDS011;37610;51.790;21.590;2024-03-25T10:04:22;8.70;;;5.00;;
51523;SDS011;37610;51.790;21.590;2024-03-25T10:08:24;7.50;;;4.20;;
51523;SDS011;37610;51.790;21.590;2024-03-25T10:12:31;6.90;;;4.60;;
51523;SDS011;37610;51.790;21.590;2024-03-25T10:16:33;8.10;;;4.70;;
51523;SDS011;37610;51.790;21.590;2024-03-25T10:20:34;6.30;;;3.90;;
51523;SDS011;37610;51.790;21.590;2024-03-25T10:24:36;6.40;;;3.70;;
51523;SDS011;37610;51.790;21.590;2024-03-25T10:28:47;8.20;;;4.50;;
51523;SDS011;37610;51.790;21.590;2024-03-25T10:33:00;16.20;;;6.40;;
51523;SDS011;37610;51.790;21.590;2024-03-25T10:37:05;14.60;;;6.00;;
51523;SDS011;37610;51.790;21.590;2024-03-25T10:41:12;18.80;;;7.90;;
51523;SDS011;37610;51.790;21.590;2024-03-25T10:45:17;31.20;;;12.00;;
51523;SDS011;37610;51.790;21.590;2024-03-25T10:49:26;26.80;;;10.90;;
51523;SDS011;37610;51.790;21.590;2024-03-25T10:53:51;20.00;;;11.00;;
51523;SDS011;37610;51.790;21.590;2024-03-25T10:57:53;15.80;;;8.10;;
51523;SDS011;37610;51.790;21.590;2024-03-25T11:01:56;15.70;;;9.10;;
51523;SDS011;37610;51.790;21.590;2024-03-25T11:05:58;11.90;;;6.40;;
51523;SDS011;37610;51.790;21.590;2024-03-25T11:10:03;13.40;;;7.20;;
51523;SDS011;37610;51.790;21.590;2024-03-25T11:14:15;11.90;;;5.80;;
51523;SDS011;37610;51.790;21.590;2024-03-25T11:18:17;6.90;;;4.10;;
51523;SDS011;37610;51.790;21.590;2024-03-25T11:22:26;6.70;;;3.50;;
51523;SDS011;37610;51.790;21.590;2024-03-25T11:26:27;6.00;;;3.60;;
51523;SDS011;37610;51.790;21.590;2024-03-25T11:30:30;5.80;;;4.00;;
51523;SDS011;37610;51.790;21.590;2024-03-25T11:34:32;7.60;;;5.00;;
51523;SDS011;37610;51.790;21.590;2024-03-25T11:38:34;9.20;;;5.60;;
51523;SDS011;37610;51.790;21.590;2024-03-25T11:42:35;11.20;;;3.80;;
51523;SDS011;37610;51.790;21.590;2024-03-25T11:46:37;6.60;;;3.70;;
51523;SDS011;37610;51.790;21.590;2024-03-25T11:50:39;4.20;;;3.00;;
51523;SDS011;37610;51.790;21.590;2024-03-25T11:54:40;6.00;;;3.60;;
51523;SDS011;37610;51.790;21.590;2024-03-25T11:58:43;6.70;;;4.00;;
51523;SDS011;37610;51.790;21.590;2024-03-25T12:02:46;16.50;;;10.60;;
51523;SDS011;37610;51.790;21.590;2024-03-25T12:06:48;7.00;;;4.50;;
51523;SDS011;37610;51.790;21.590;2024-03-25T12:10:49;7.20;;;3.80;;
51523;SDS011;37610;51.790;21.590;2024-03-25T12:15:09;8.70;;;5.20;;
51523;SDS011;37610;51.790;21.590;2024-03-25T12:19:11;6.90;;;3.80;;
51523;SDS011;37610;51.790;21.590;2024-03-25T12:23:13;37.20;;;14.70;;
51523;SDS011;37610;51.790;21.590;2024-03-25T12:27:14;12.70;;;5.40;;
51523;SDS011;37610;51.790;21.590;2024-03-25T12:31:16;5.50;;;3.50;;
51523;SDS011;37610;51.790;21.590;2024-03-25T12:35:17;5.40;;;3.70;;
51523;SDS011;37610;51.790;21.590;2024-03-25T12:39:19;6.00;;;4.30;;
51523;SDS011;37610;51.790;21.590;2024-03-25T12:43:21;7.90;;;4.00;;
51523;SDS011;37610;51.790;21.590;2024-03-25T12:47:22;8.50;;;4.40;;
51523;SDS011;37610;51.790;21.590;2024-03-25T12:51:24;8.10;;;4.40;;
51523;SDS011;37610;51.790;21.590;2024-03-25T12:55:25;5.50;;;3.60;;
51523;SDS011;37610;51.790;21.590;2024-03-25T12:59:27;6.70;;;3.60;;
51523;SDS011;37610;51.790;21.590;2024-03-25T13:03:29;9.40;;;3.80;;
51523;SDS011;37610;51.790;21.590;2024-03-25T13:07:30;8.90;;;5.40;;
51523;SDS011;37610;51.790;21.590;2024-03-25T13:11:32;4.80;;;3.20;;
51523;SDS011;37610;51.790;21.590;2024-03-25T13:15:33;7.40;;;4.60;;
51523;SDS011;37610;51.790;21.590;2024-03-25T13:19:35;6.80;;;4.30;;
51523;SDS011;37610;51.790;21.590;2024-03-25T13:23:36;17.20;;;10.60;;
51523;SDS011;37610;51.790;21.590;2024-03-25T13:27:37;26.90;;;15.00;;
51523;SDS011;37610;51.790;21.590;2024-03-25T13:31:39;73.70;;;32.60;;
51523;SDS011;37610;51.790;21.590;2024-03-25T13:35:41;73.60;;;36.30;;
51523;SDS011;37610;51.790;21.590;2024-03-25T13:39:42;80.70;;;40.40;;
51523;SDS011;37610;51.790;21.590;2024-03-25T13:43:43;92.30;;;47.00;;
51523;SDS011;37610;51.790;21.590;2024-03-25T13:47:45;49.90;;;25.30;;
51523;SDS011;37610;51.790;21.590;2024-03-25T13:51:46;15.50;;;9.00;;
51523;SDS011;37610;51.790;21.590;2024-03-25T13:55:48;6.50;;;3.90;;
51523;SDS011;37610;51.790;21.590;2024-03-25T13:59:52;15.40;;;9.70;;
51523;SDS011;37610;51.790;21.590;2024-03-25T14:03:53;11.80;;;6.60;;
51523;SDS011;37610;51.790;21.590;2024-03-25T14:07:55;21.30;;;11.80;;
51523;SDS011;37610;51.790;21.590;2024-03-25T14:11:56;3.80;;;2.50;;
51523;SDS011;37610;51.790;21.590;2024-03-25T14:15:58;5.90;;;2.70;;
51523;SDS011;37610;51.790;21.590;2024-03-25T14:19:59;38.80;;;17.10;;
51523;SDS011;37610;51.790;21.590;2024-03-25T14:24:00;14.80;;;9.70;;
51523;SDS011;37610;51.790;21.590;2024-03-25T14:28:02;25.70;;;16.60;;
51523;SDS011;37610;51.790;21.590;2024-03-25T14:32:05;28.30;;;21.90;;
51523;SDS011;37610;51.790;21.590;2024-03-25T14:36:06;41.50;;;31.10;;
51523;SDS011;37610;51.790;21.590;2024-03-25T14:40:08;141.40;;;59.80;;
51523;SDS011;37610;51.790;21.590;2024-03-25T14:44:10;51.90;;;25.50;;
51523;SDS011;37610;51.790;21.590;2024-03-25T14:48:11;36.50;;;20.70;;
51523;SDS011;37610;51.790;21.590;2024-03-25T14:52:12;57.10;;;25.60;;
51523;SDS011;37610;51.790;21.590;2024-03-25T14:56:15;77.10;;;27.80;;
51523;SDS011;37610;51.790;21.590;2024-03-25T15:00:16;70.60;;;35.80;;
51523;SDS011;37610;51.790;21.590;2024-03-25T15:04:18;56.60;;;31.30;;
51523;SDS011;37610;51.790;21.590;2024-03-25T15:08:19;58.80;;;29.20;;
51523;SDS011;37610;51.790;21.590;2024-03-25T15:12:21;35.10;;;17.80;;
51523;SDS011;37610;51.790;21.590;2024-03-25T15:16:23;20.70;;;15.50;;
51523;SDS011;37610;51.790;21.590;2024-03-25T15:20:24;16.20;;;13.10;;
51523;SDS011;37610;51.790;21.590;2024-03-25T15:24:25;41.80;;;27.30;;
51523;SDS011;37610;51.790;21.590;2024-03-25T15:28:27;30.80;;;18.30;;
51523;SDS011;37610;51.790;21.590;2024-03-25T15:32:29;144.20;;;63.00;;
51523;SDS011;37610;51.790;21.590;2024-03-25T15:36:31;32.30;;;22.20;;
51523;SDS011;37610;51.790;21.590;2024-03-25T15:40:32;66.40;;;47.30;;
51523;SDS011;37610;51.790;21.590;2024-03-25T15:44:33;50.80;;;38.30;;
51523;SDS011;37610;51.790;21.590;2024-03-25T15:48:35;111.80;;;67.60;;
51523;SDS011;37610;51.790;21.590;2024-03-25T15:52:36;50.00;;;33.40;;
51523;SDS011;37610;51.790;21.590;2024-03-25T15:56:38;76.00;;;46.10;;
51523;SDS011;37610;51.790;21.590;2024-03-25T16:00:39;112.70;;;64.70;;
51523;SDS011;37610;51.790;21.590;2024-03-25T16:04:40;65.10;;;36.60;;
51523;SDS011;37610;51.790;21.590;2024-03-25T16:08:42;56.00;;;34.50;;
51523;SDS011;37610;51.790;21.590;2024-03-25T16:12:43;75.70;;;47.80;;
51523;SDS011;37610;51.790;21.590;2024-03-25T16:16:46;60.70;;;42.90;;
51523;SDS011;37610;51.790;21.590;2024-03-25T16:20:47;66.10;;;40.50;;
51523;SDS011;37610;51.790;21.590;2024-03-25T16:24:52;79.50;;;43.20;;
51523;SDS011;37610;51.790;21.590;2024-03-25T16:28:54;77.50;;;42.60;;
51523;SDS011;37610;51.790;21.590;2024-03-25T16:32:55;80.20;;;46.60;;
51523;SDS011;37610;51.790;21.590;2024-03-25T16:36:57;90.50;;;48.90;;
51523;SDS011;37610;51.790;21.590;2024-03-25T16:40:58;172.00;;;89.80;;
51523;SDS011;37610;51.790;21.590;2024-03-25T16:45:00;133.50;;;68.20;;
51523;SDS011;37610;51.790;21.590;2024-03-25T16:49:02;183.70;;;102.30;;
51523;SDS011;37610;51.790;21.590;2024-03-25T16:53:03;206.90;;;106.20;;
51523;SDS011;37610;51.790;21.590;2024-03-25T16:57:05;277.20;;;130.70;;
51523;SDS011;37610;51.790;21.590;2024-03-25T17:01:06;122.30;;;58.10;;
51523;SDS011;37610;51.790;21.590;2024-03-25T17:05:07;101.60;;;54.60;;
51523;SDS011;37610;51.790;21.590;2024-03-25T17:09:09;96.10;;;50.90;;
51523;SDS011;37610;51.790;21.590;2024-03-25T17:13:11;75.90;;;44.00;;
51523;SDS011;37610;51.790;21.590;2024-03-25T17:17:12;68.90;;;41.70;;
51523;SDS011;37610;51.790;21.590;2024-03-25T17:21:14;60.50;;;36.10;;
51523;SDS011;37610;51.790;21.590;2024-03-25T17:25:15;71.50;;;40.40;;
51523;SDS011;37610;51.790;21.590;2024-03-25T17:29:16;91.80;;;46.80;;
51523;SDS011;37610;51.790;21.590;2024-03-25T17:33:18;103.90;;;53.70;;
51523;SDS011;37610;51.790;21.590;2024-03-25T17:37:19;107.10;;;56.90;;
51523;SDS011;37610;51.790;21.590;2024-03-25T17:41:21;129.90;;;60.80;;
51523;SDS011;37610;51.790;21.590;2024-03-25T17:45:22;108.40;;;51.70;;
51523;SDS011;37610;51.790;21.590;2024-03-25T17:49:24;122.00;;;60.40;;
51523;SDS011;37610;51.790;21.590;2024-03-25T17:53:25;123.70;;;58.80;;
51523;SDS011;37610;51.790;21.590;2024-03-25T17:57:27;143.80;;;70.20;;
51523;SDS011;37610;51.790;21.590;2024-03-25T18:01:28;125.90;;;68.70;;
51523;SDS011;37610;51.790;21.590;2024-03-25T18:05:30;120.90;;;64.00;;
51523;SDS011;37610;51.790;21.590;2024-03-25T18:09:32;100.40;;;56.00;;
51523;SDS011;37610;51.790;21.590;2024-03-25T18:13:34;86.70;;;49.60;;
51523;SDS011;37610;51.790;21.590;2024-03-25T18:17:35;95.60;;;54.80;;
51523;SDS011;37610;51.790;21.590;2024-03-25T18:21:37;237.60;;;101.40;;
51523;SDS011;37610;51.790;21.590;2024-03-25T18:25:38;136.90;;;64.20;;
51523;SDS011;37610;51.790;21.590;2024-03-25T18:29:40;142.60;;;72.40;;
51523;SDS011;37610;51.790;21.590;2024-03-25T18:33:41;178.40;;;88.20;;
51523;SDS011;37610;51.790;21.590;2024-03-25T18:37:43;196.40;;;100.20;;
51523;SDS011;37610;51.790;21.590;2024-03-25T18:41:44;238.20;;;116.90;;
51523;SDS011;37610;51.790;21.590;2024-03-25T18:45:46;228.30;;;115.50;;
51523;SDS011;37610;51.790;21.590;2024-03-25T18:49:47;233.70;;;117.90;;
51523;SDS011;37610;51.790;21.590;2024-03-25T18:53:48;238.30;;;122.60;;
51523;SDS011;37610;51.790;21.590;2024-03-25T18:57:50;268.30;;;137.90;;
51523;SDS011;37610;51.790;21.590;2024-03-25T19:01:51;232.10;;;122.80;;
51523;SDS011;37610;51.790;21.590;2024-03-25T19:05:54;239.40;;;127.50;;
51523;SDS011;37610;51.790;21.590;2024-03-25T19:09:56;263.60;;;141.50;;
51523;SDS011;37610;51.790;21.590;2024-03-25T19:13:57;264.20;;;139.60;;
51523;SDS011;37610;51.790;21.590;2024-03-25T19:17:58;275.40;;;141.60;;
51523;SDS011;37610;51.790;21.590;2024-03-25T19:22:00;271.10;;;141.70;;
51523;SDS011;37610;51.790;21.590;2024-03-25T19:26:01;270.40;;;143.10;;
51523;SDS011;37610;51.790;21.590;2024-03-25T19:30:04;280.90;;;142.20;;
51523;SDS011;37610;51.790;21.590;2024-03-25T19:34:05;306.10;;;154.60;;
51523;SDS011;37610;51.790;21.590;2024-03-25T19:38:07;323.60;;;155.20;;
51523;SDS011;37610;51.790;21.590;2024-03-25T19:42:08;343.50;;;161.40;;
51523;SDS011;37610;51.790;21.590;2024-03-25T19:46:10;379.10;;;183.10;;
51523;SDS011;37610;51.790;21.590;2024-03-25T19:50:11;347.80;;;169.90;;
51523;SDS011;37610;51.790;21.590;2024-03-25T19:54:13;330.10;;;161.80;;
51523;SDS011;37610;51.790;21.590;2024-03-25T19:58:15;344.10;;;165.00;;
51523;SDS011;37610;51.790;21.590;2024-03-25T20:02:16;333.00;;;165.70;;
51523;SDS011;37610;51.790;21.590;2024-03-25T20:06:18;382.60;;;190.20;;
51523;SDS011;37610;51.790;21.590;2024-03-25T20:10:19;373.30;;;184.20;;
51523;SDS011;37610;51.790;21.590;2024-03-25T20:14:20;403.30;;;198.00;;
51523;SDS011;37610;51.790;21.590;2024-03-25T20:18:22;368.30;;;189.80;;
51523;SDS011;37610;51.790;21.590;2024-03-25T20:22:24;376.50;;;193.40;;
51523;SDS011;37610;51.790;21.590;2024-03-25T20:26:25;391.80;;;196.10;;
51523;SDS011;37610;51.790;21.590;2024-03-25T20:30:27;371.70;;;190.60;;
51523;SDS011;37610;51.790;21.590;2024-03-25T20:34:28;349.00;;;178.00;;
51523;SDS011;37610;51.790;21.590;2024-03-25T20:38:30;355.00;;;172.60;;
51523;SDS011;37610;51.790;21.590;2024-03-25T20:42:32;391.10;;;189.20;;
51523;SDS011;37610;51.790;21.590;2024-03-25T20:46:33;403.10;;;192.50;;
51523;SDS011;37610;51.790;21.590;2024-03-25T20:50:35;385.80;;;194.80;;
51523;SDS011;37610;51.790;21.590;2024-03-25T20:54:36;392.00;;;191.40;;
51523;SDS011;37610;51.790;21.590;2024-03-25T20:58:38;336.10;;;166.10;;
51523;SDS011;37610;51.790;21.590;2024-03-25T21:02:39;380.30;;;190.10;;
51523;SDS011;37610;51.790;21.590;2024-03-25T21:06:41;342.30;;;171.90;;
51523;SDS011;37610;51.790;21.590;2024-03-25T21:10:43;339.10;;;162.50;;
51523;SDS011;37610;51.790;21.590;2024-03-25T21:14:44;362.30;;;171.90;;
51523;SDS011;37610;51.790;21.590;2024-03-25T21:18:46;345.70;;;167.50;;
51523;SDS011;37610;51.790;21.590;2024-03-25T21:26:51;368.20;;;176.20;;
51523;SDS011;37610;51.790;21.590;2024-03-25T21:30:52;354.60;;;177.40;;
51523;SDS011;37610;51.790;21.590;2024-03-25T21:34:54;336.80;;;172.30;;
51523;SDS011;37610;51.790;21.590;2024-03-25T21:38:55;297.60;;;155.40;;
51523;SDS011;37610;51.790;21.590;2024-03-25T21:42:57;319.40;;;164.80;;
51523;SDS011;37610;51.790;21.590;2024-03-25T21:46:58;281.20;;;144.10;;
51523;SDS011;37610;51.790;21.590;2024-03-25T21:50:59;315.40;;;158.90;;
51523;SDS011;37610;51.790;21.590;2024-03-25T21:55:01;316.20;;;163.10;;
51523;SDS011;37610;51.790;21.590;2024-03-25T21:59:02;288.20;;;150.10;;
51523;SDS011;37610;51.790;21.590;2024-03-25T22:03:04;288.40;;;145.30;;
51523;SDS011;37610;51.790;21.590;2024-03-25T22:07:06;274.80;;;141.00;;
51523;SDS011;37610;51.790;21.590;2024-03-25T22:11:07;267.80;;;139.80;;
51523;SDS011;37610;51.790;21.590;2024-03-25T22:15:08;260.80;;;139.60;;
51523;SDS011;37610;51.790;21.590;2024-03-25T22:19:10;286.50;;;150.40;;
51523;SDS011;37610;51.790;21.590;2024-03-25T22:23:12;288.50;;;148.60;;
51523;SDS011;37610;51.790;21.590;2024-03-25T22:27:13;302.80;;;151.90;;
51523;SDS011;37610;51.790;21.590;2024-03-25T22:31:14;294.00;;;146.50;;
51523;SDS011;37610;51.790;21.590;2024-03-25T22:35:16;289.90;;;142.30;;
51523;SDS011;37610;51.790;21.590;2024-03-25T22:39:18;294.50;;;144.00;;
51523;SDS011;37610;51.790;21.590;2024-03-25T22:43:20;284.30;;;141.00;;
51523;SDS011;37610;51.790;21.590;2024-03-25T22:47:21;273.80;;;136.00;;
51523;SDS011;37610;51.790;21.590;2024-03-25T22:51:23;249.30;;;123.10;;
51523;SDS011;37610;51.790;21.590;2024-03-25T22:55:25;290.70;;;135.40;;
51523;SDS011;37610;51.790;21.590;2024-03-25T22:59:26;301.80;;;141.00;;
51523;SDS011;37610;51.790;21.590;2024-03-25T23:03:27;309.90;;;140.00;;
51523;SDS011;37610;51.790;21.590;2024-03-25T23:07:30;315.90;;;143.90;;
51523;SDS011;37610;51.790;21.590;2024-03-25T23:11:31;331.10;;;157.00;;
51523;SDS011;37610;51.790;21.590;2024-03-25T23:15:32;326.30;;;154.80;;
51523;SDS011;37610;51.790;21.590;2024-03-25T23:19:34;299.10;;;147.30;;